Terminal Aerodrome Forecast
Issued by NWS Caribou, ME

Home | Current Version | Previous Version | Text Only | Print | Product List | Glossary On
Versions: 1 2 3 4 5 6 7 8 9 10 11 12 13 14 15 16 17 18 19 20 21
000
FTUS41 KCAR 050735 AAA
TAFCAR
TAF AMD
KCAR 050735Z 0508/0606 28009KT P6SM BKN025
     FM051000 28008KT P6SM SCT080
     FM051500 30012KT P6SM FEW250
     FM060400 29004KT P6SM FEW250=

USA.gov is the U.S. government's official web portal to all federal, state and local government web resources and services.